Latest METARs, TAFs and NOTAMs for WSSL


---------------------------------------------------------------------------
	(OBSERVATIONS)
WSSL 260200Z 15008KT 7000 FEW015 SCT018TCU BKN300 30/24 Q1009
    RMK 0130Z Q1009=
WSSL 260000Z 15010KT 8000 FEW015 SCT020TCU BKN280 29/24 Q1008
    RMK 2330Z Q1008=
---------------------------------------------------------------------------
	(TERMINAL AREA FORECAST)
AMD WSSL 260215Z 2602/2706 16009KT 9999 FEW018CB SCT020
    TEMPO 2602/2606 3000 TSRA FEW015CB BKN018=
---------------------------------------------------------------------------
	(NOTAMS)


WSSL A1543/17 BTN THE HOURS OF SUNSET AND SUNRISE, ARR ON RWY
    21 AND DEP ON RWY 03 SUSPENDED DUE UNSERVICEABILITY OF OBSTRUCTION
    LIGHTS ON OBSTACLE 2NM NORTH OF SELETAR. 25 MAY 03:47 2017
    UNTIL 25 AUG 23:00 2017. CREATED: 25 MAY 03:48 2017

WSSL A1619/17 EXCAVATORS, HGT 20M AMSL, ON TURF NORTH OF TWY
    E2 ABEAM PAPI. RMK/OUT OF RWY STRIP. 31 MAY 10:00 2017 UNTIL
    31 AUG 23:59 2017 ESTIMATED. CREATED: 31 MAY 10:00 2017

WSSL A1689/17 ONE NEW MAST, HGT 9M AGL, ERECTED AT 012441.3N
    1035145.6E IN THE VICINITY OF THE SOUTHERN WDI. RMK/OUT OF
    RWY STRIP. 05 JUN 10:15 2017 UNTIL 04 SEP 23:59 2017. CREATED:
    05 JUN 10:15 2017

WSSL A1796/17 JUN 24 JUL 02 08 15 22 29 AUG 09 1032-1052, JUL
    09 23 30 AUG 12 (RESERVE DATE) 1032-1052 SELETAR AP CLSD
    DUE TO NATIONAL DAY AERIAL FLYPAST AS PUBLISHED IN SINGAPORE
    AIP SUP 032/2017 ANNEX A, TABLE, COLUMN C. 24 JUN 10:32 2017
    UNTIL 12 AUG 10:52 2017. CREATED: 14 JUN 01:56 2017

WSSL A1804/17 1) NEW MICROWAVE BARRIER DETECTORS (MBD) AND RWY
    GUARD LIGHTS AT ALL RWY HLDG POINTS. 2) NEW MICROWAVE BARRIER
    DETECTORS (MBD) AT AP EMERG SER EMERG RTE. BOTH WILL BE OPERATIONAL
    ON 04 SEP 2017 AT 0200UTC. 15 JUN 07:45 2017 UNTIL 04 SEP
    02:00 2017. CREATED: 15 JUN 07:44 2017

---------------------------------------------------------------------------